createdAt,value
2023-03-17T00:01:47.638Z,3.01
2023-03-17T00:04:15.671Z,3.00
2023-03-17T00:06:42.755Z,2.98
2023-03-17T00:09:17.730Z,3.00
2023-03-17T00:11:45.826Z,2.97
2023-03-17T00:14:12.842Z,2.97
2023-03-17T00:16:45.512Z,2.95
2023-03-17T00:19:21.845Z,2.94
2023-03-17T00:21:50.033Z,2.90
2023-03-17T00:24:17.696Z,2.92
2023-03-17T00:26:44.901Z,2.92
2023-03-17T00:29:13.785Z,2.95
2023-03-17T00:31:45.479Z,2.95
2023-03-17T00:34:16.801Z,2.91
2023-03-17T00:36:50.754Z,2.94
2023-03-17T00:39:18.857Z,2.93
2023-03-17T00:41:50.698Z,2.93
2023-03-17T00:44:19.114Z,2.91
2023-03-17T00:46:49.145Z,2.88
2023-03-17T00:49:21.621Z,2.88
2023-03-17T00:51:49.855Z,2.89
2023-03-17T00:54:18.002Z,2.85
2023-03-17T00:56:45.856Z,2.85
2023-03-17T00:59:21.524Z,2.86
2023-03-17T01:01:49.806Z,2.88
2023-03-17T01:04:19.749Z,2.87
2023-03-17T01:06:48.368Z,2.90
2023-03-17T01:09:18.677Z,2.91
2023-03-17T01:11:47.499Z,2.88
2023-03-17T01:14:16.548Z,2.87
2023-03-17T01:16:46.572Z,2.83
2023-03-17T01:19:14.596Z,2.85
2023-03-17T01:21:42.712Z,2.82
2023-03-17T01:24:11.034Z,2.84
2023-03-17T01:26:39.939Z,2.85
2023-03-17T01:29:08.096Z,2.84
2023-03-17T01:31:35.692Z,2.79
2023-03-17T01:34:04.496Z,2.78
2023-03-17T01:36:31.396Z,2.74
2023-03-17T01:38:58.819Z,2.74
2023-03-17T01:41:26.449Z,2.77
2023-03-17T01:43:54.478Z,2.78
2023-03-17T01:46:25.998Z,2.80
2023-03-17T01:49:22.926Z,2.83
2023-03-17T01:51:53.297Z,2.83
2023-03-17T01:54:28.945Z,2.81
2023-03-17T01:57:01.527Z,2.78
2023-03-17T01:59:35.054Z,2.81
2023-03-17T02:02:06.659Z,2.82
2023-03-17T02:04:34.387Z,2.84
2023-03-17T02:07:05.291Z,2.84
2023-03-17T02:09:34.269Z,2.87
2023-03-17T02:12:02.927Z,2.89
2023-03-17T02:14:30.267Z,2.88
2023-03-17T02:16:57.700Z,2.88
2023-03-17T02:19:25.587Z,2.91
2023-03-17T02:21:58.949Z,2.91
2023-03-17T02:24:39.744Z,2.91
2023-03-17T02:27:21.423Z,2.89
2023-03-17T02:29:49.055Z,2.89
2023-03-17T02:32:17.974Z,2.89
2023-03-17T02:34:50.132Z,2.87
2023-03-17T02:37:18.997Z,2.85
2023-03-17T02:39:47.213Z,2.86
2023-03-17T02:42:15.231Z,2.91
2023-03-17T02:44:42.088Z,2.90
2023-03-17T02:47:08.992Z,2.91
2023-03-17T02:49:37.521Z,2.95
2023-03-17T02:52:07.442Z,2.94
2023-03-17T02:54:34.457Z,2.92
2023-03-17T02:57:01.709Z,2.91
2023-03-17T02:59:28.664Z,2.89
2023-03-17T03:01:56.446Z,2.91
2023-03-17T03:04:24.616Z,2.94
2023-03-17T03:06:52.809Z,2.93
2023-03-17T03:09:20.733Z,2.92
2023-03-17T03:11:47.935Z,2.93
2023-03-17T03:14:15.476Z,2.91
2023-03-17T03:16:43.922Z,2.90
2023-03-17T03:19:11.050Z,2.86
2023-03-17T03:21:37.943Z,2.87
2023-03-17T03:24:05.825Z,2.83
2023-03-17T03:26:32.940Z,2.85
2023-03-17T03:29:02.805Z,2.86
2023-03-17T03:31:29.821Z,2.81
2023-03-17T03:33:56.897Z,2.79
2023-03-17T03:36:23.839Z,2.73
2023-03-17T03:38:51.144Z,2.73
2023-03-17T03:41:18.470Z,2.70
2023-03-17T03:43:45.322Z,2.71
2023-03-17T03:46:12.329Z,2.70
2023-03-17T03:48:39.260Z,2.66
2023-03-17T03:51:06.190Z,2.62
2023-03-17T03:53:33.019Z,2.63
2023-03-17T03:56:00.576Z,2.60
2023-03-17T03:58:27.749Z,2.58
2023-03-17T04:00:54.596Z,2.54
2023-03-17T04:03:22.000Z,2.54
2023-03-17T04:05:50.371Z,2.53
2023-03-17T04:08:17.575Z,2.51
2023-03-17T04:10:44.768Z,2.53
2023-03-17T04:13:11.895Z,2.52
2023-03-17T04:15:39.854Z,2.53
2023-03-17T04:18:06.801Z,2.55
2023-03-17T04:20:35.578Z,2.52
2023-03-17T04:23:04.232Z,2.49
2023-03-17T04:25:32.627Z,2.44
2023-03-17T04:27:59.568Z,2.49
2023-03-17T04:30:26.563Z,2.48
2023-03-17T04:32:53.639Z,2.49
2023-03-17T04:35:24.538Z,2.51
2023-03-17T04:37:51.733Z,2.54
2023-03-17T04:40:19.307Z,2.56
2023-03-17T04:42:46.890Z,2.57
2023-03-17T04:45:15.712Z,2.55
2023-03-17T04:47:43.107Z,2.58
2023-03-17T04:50:10.966Z,2.56
2023-03-17T04:52:39.184Z,2.56
2023-03-17T04:55:08.495Z,2.59
2023-03-17T04:57:36.842Z,2.55
2023-03-17T05:00:08.499Z,2.55
2023-03-17T05:02:36.054Z,2.57
2023-03-17T05:05:03.243Z,2.58
2023-03-17T05:07:31.790Z,2.59
2023-03-17T05:09:59.990Z,2.58
2023-03-17T05:12:27.140Z,2.56
2023-03-17T05:14:54.048Z,2.53
2023-03-17T05:17:21.011Z,2.52
2023-03-17T05:19:48.027Z,2.51
2023-03-17T05:22:14.933Z,2.48
2023-03-17T05:24:42.122Z,2.49
2023-03-17T05:27:09.509Z,2.49
2023-03-17T05:29:36.347Z,2.46
2023-03-17T05:32:04.937Z,2.46
2023-03-17T05:34:32.314Z,2.46
2023-03-17T05:36:59.155Z,2.43
2023-03-17T05:39:26.123Z,2.41
2023-03-17T05:41:53.519Z,2.40
2023-03-17T05:44:22.660Z,2.35
2023-03-17T05:46:49.504Z,2.35
2023-03-17T05:49:16.447Z,2.35
2023-03-17T05:51:43.677Z,2.38
2023-03-17T05:54:10.684Z,2.38
2023-03-17T05:56:37.745Z,2.44
2023-03-17T05:59:05.496Z,2.45
2023-03-17T06:01:33.161Z,2.48
2023-03-17T06:04:01.941Z,2.48
2023-03-17T06:06:29.121Z,2.49
2023-03-17T06:08:57.493Z,2.52
2023-03-17T06:11:24.462Z,2.53
2023-03-17T06:13:51.413Z,2.54
2023-03-17T06:16:19.157Z,2.58
2023-03-17T06:18:50.097Z,2.61
2023-03-17T06:21:19.922Z,2.65
2023-03-17T06:23:46.839Z,2.70
2023-03-17T06:26:15.567Z,2.70
2023-03-17T06:28:44.148Z,2.78
2023-03-17T06:31:11.295Z,2.85
2023-03-17T06:33:39.159Z,2.97
2023-03-17T06:36:06.701Z,3.04
2023-03-17T06:38:33.906Z,3.18
2023-03-17T06:41:00.966Z,3.26
2023-03-17T06:43:27.926Z,3.36
2023-03-17T06:45:56.050Z,3.46
2023-03-17T06:48:23.695Z,3.56
2023-03-17T06:50:50.655Z,3.65
2023-03-17T06:53:17.911Z,3.72
2023-03-17T06:55:45.200Z,3.82
2023-03-17T06:58:13.598Z,3.90
2023-03-17T07:00:40.857Z,4.00
2023-03-17T07:03:10.086Z,4.06
2023-03-17T07:05:38.252Z,4.12
2023-03-17T07:08:08.582Z,4.22
2023-03-17T07:10:36.925Z,4.31
2023-03-17T07:13:06.311Z,4.42
2023-03-17T07:15:36.136Z,4.53
2023-03-17T07:18:05.258Z,4.63
2023-03-17T07:20:33.754Z,4.73
2023-03-17T07:23:00.985Z,4.83
2023-03-17T07:25:30.701Z,4.89
2023-03-17T07:27:58.628Z,4.99
2023-03-17T07:30:25.535Z,5.12
2023-03-17T07:32:52.809Z,5.29
2023-03-17T07:35:20.300Z,5.45
2023-03-17T07:37:47.599Z,5.62
2023-03-17T07:40:14.725Z,5.77
2023-03-17T07:42:42.428Z,5.94
2023-03-17T07:45:10.211Z,6.09
2023-03-17T07:47:37.394Z,6.19
2023-03-17T07:50:04.813Z,6.33
2023-03-17T07:52:32.208Z,6.44
2023-03-17T07:54:59.255Z,6.53
2023-03-17T07:57:26.184Z,6.68
2023-03-17T07:59:53.161Z,6.75
2023-03-17T08:02:21.321Z,6.89
2023-03-17T08:04:49.266Z,7.02
2023-03-17T08:07:16.695Z,7.11
2023-03-17T08:09:43.689Z,7.16
2023-03-17T08:12:11.012Z,7.21
2023-03-17T08:14:38.198Z,7.31
2023-03-17T08:17:05.410Z,7.39
2023-03-17T08:19:33.452Z,7.50
2023-03-17T08:22:01.556Z,7.61
2023-03-17T08:24:29.577Z,7.74
2023-03-17T08:26:58.074Z,7.86
2023-03-17T08:29:26.406Z,7.99
2023-03-17T08:31:53.340Z,8.08
2023-03-17T08:34:20.229Z,8.20
2023-03-17T08:36:47.257Z,8.31
2023-03-17T08:39:14.172Z,8.37
2023-03-17T08:41:43.618Z,8.46
2023-03-17T08:44:10.828Z,8.51
2023-03-17T08:46:37.782Z,8.59
2023-03-17T08:49:05.145Z,8.63
2023-03-17T08:51:34.918Z,8.67
2023-03-17T08:54:02.287Z,8.76
2023-03-17T08:56:29.903Z,8.83
2023-03-17T08:58:57.210Z,8.93
2023-03-17T09:01:27.493Z,9.03
2023-03-17T09:03:55.227Z,9.13
2023-03-17T09:06:23.025Z,9.22
2023-03-17T09:08:55.767Z,9.33
2023-03-17T09:11:28.614Z,9.44
2023-03-17T09:13:56.573Z,9.55
2023-03-17T09:16:24.793Z,9.63
2023-03-17T09:18:52.076Z,9.66
2023-03-17T09:21:19.418Z,9.72
2023-03-17T09:23:47.334Z,9.75
2023-03-17T09:26:14.949Z,9.77
2023-03-17T09:28:42.899Z,9.85
2023-03-17T09:31:11.741Z,9.96
2023-03-17T09:33:39.887Z,10.04
2023-03-17T09:36:07.532Z,10.10
2023-03-17T09:38:35.926Z,10.11
2023-03-17T09:41:20.366Z,10.09
2023-03-17T09:44:12.400Z,10.06
2023-03-17T09:47:01.034Z,10.06
2023-03-17T09:49:47.262Z,10.27
2023-03-17T09:52:18.866Z,10.51
2023-03-17T09:54:49.757Z,10.77
2023-03-17T09:57:31.589Z,11.04
2023-03-17T10:00:19.429Z,11.30
2023-03-17T10:02:47.412Z,11.50
2023-03-17T10:05:35.106Z,11.65
2023-03-17T10:08:32.221Z,11.93
2023-03-17T10:11:18.296Z,12.14
2023-03-17T10:13:58.050Z,12.42
2023-03-17T10:16:54.935Z,12.58
2023-03-17T10:19:35.646Z,12.81
2023-03-17T10:22:16.618Z,13.01
2023-03-17T10:24:49.459Z,13.15
2023-03-17T10:27:17.365Z,13.31
2023-03-17T10:29:47.882Z,13.52
2023-03-17T10:32:16.671Z,13.67
2023-03-17T10:34:44.254Z,13.83
2023-03-17T10:37:24.010Z,14.00
2023-03-17T10:39:53.040Z,14.14
2023-03-17T10:42:29.337Z,14.32
2023-03-17T10:45:07.624Z,14.41
2023-03-17T10:47:40.977Z,14.59
2023-03-17T10:50:22.913Z,14.78
2023-03-17T10:53:04.839Z,14.93
2023-03-17T10:55:34.399Z,14.93
2023-03-17T10:58:09.351Z,15.08
2023-03-17T11:00:38.714Z,15.23
2023-03-17T11:03:19.034Z,15.54
2023-03-17T11:05:57.969Z,16.03
2023-03-17T11:08:25.168Z,16.23
2023-03-17T11:10:57.141Z,16.35
2023-03-17T11:13:30.467Z,16.53
2023-03-17T11:16:10.835Z,16.94
2023-03-17T11:18:39.803Z,17.31
2023-03-17T11:21:11.179Z,17.71
2023-03-17T11:23:54.107Z,17.96
2023-03-17T11:26:53.965Z,18.11
2023-03-17T11:29:57.517Z,18.09
2023-03-17T11:32:30.502Z,17.92
2023-03-17T11:35:12.958Z,17.57
2023-03-17T11:38:05.570Z,17.22
2023-03-17T11:40:41.155Z,16.98
2023-03-17T11:43:37.005Z,16.79
2023-03-17T11:46:14.464Z,16.52
2023-03-17T11:48:44.876Z,16.43
2023-03-17T11:51:32.280Z,16.23
2023-03-17T11:54:29.869Z,16.10
2023-03-17T11:57:05.000Z,15.90
2023-03-17T11:59:45.605Z,15.82
2023-03-17T12:02:22.537Z,15.76
2023-03-17T12:05:13.563Z,15.78
2023-03-17T12:07:48.738Z,15.83
2023-03-17T12:10:18.782Z,15.81
2023-03-17T12:13:01.437Z,15.76
2023-03-17T12:15:40.579Z,15.82
2023-03-17T12:18:33.238Z,15.83
2023-03-17T12:21:05.643Z,15.85
2023-03-17T12:23:50.812Z,15.82
2023-03-17T12:26:31.902Z,15.75
2023-03-17T12:29:06.460Z,15.73
2023-03-17T12:31:41.854Z,15.69
2023-03-17T12:34:32.350Z,15.75
2023-03-17T12:36:59.705Z,15.74
2023-03-17T12:39:35.581Z,15.77
2023-03-17T12:42:18.400Z,15.87
2023-03-17T12:45:17.507Z,16.07
2023-03-17T12:47:56.321Z,16.44
2023-03-17T12:50:45.065Z,16.87
2023-03-17T12:53:35.813Z,17.42
2023-03-17T12:56:38.800Z,17.96
2023-03-17T12:59:11.640Z,18.53
2023-03-17T13:01:55.789Z,19.09
2023-03-17T13:04:27.765Z,19.45
2023-03-17T13:07:10.076Z,19.84
2023-03-17T13:09:49.893Z,20.37
2023-03-17T13:12:35.949Z,20.77
2023-03-17T13:15:04.010Z,21.15
2023-03-17T13:17:32.966Z,21.54
2023-03-17T13:19:59.741Z,21.84
2023-03-17T13:22:34.881Z,21.99
2023-03-17T13:25:35.274Z,21.92
2023-03-17T13:28:24.024Z,21.55
2023-03-17T13:31:13.584Z,21.23
2023-03-17T13:33:53.401Z,20.69
2023-03-17T13:36:42.859Z,20.17
2023-03-17T13:39:21.290Z,19.94
2023-03-17T13:42:05.474Z,19.90
2023-03-17T13:45:09.243Z,20.17
2023-03-17T13:47:40.322Z,20.47
2023-03-17T13:50:09.335Z,20.58
2023-03-17T13:52:46.221Z,20.87
2023-03-17T13:55:20.724Z,20.92
2023-03-17T13:58:11.845Z,20.77
2023-03-17T14:00:47.928Z,20.58
2023-03-17T14:03:34.888Z,20.47
2023-03-17T14:06:06.965Z,20.38
2023-03-17T14:08:36.472Z,20.19
2023-03-17T14:11:42.241Z,19.98
2023-03-17T14:14:31.443Z,19.69
2023-03-17T14:17:07.407Z,19.37
2023-03-17T14:19:34.713Z,19.07
2023-03-17T14:22:20.707Z,18.78
2023-03-17T14:24:51.887Z,18.60
2023-03-17T14:27:20.166Z,18.45
2023-03-17T14:29:47.577Z,18.33
2023-03-17T14:32:18.869Z,18.21
2023-03-17T14:34:59.448Z,18.02
2023-03-17T14:37:27.835Z,17.86
2023-03-17T14:39:57.825Z,17.75
2023-03-17T14:42:30.599Z,17.66
2023-03-17T14:45:05.698Z,17.60
2023-03-17T14:47:41.193Z,17.44
2023-03-17T14:50:25.037Z,17.33
2023-03-17T14:52:52.055Z,17.19
2023-03-17T14:55:20.091Z,17.05
2023-03-17T14:57:53.033Z,16.97
2023-03-17T15:00:38.245Z,16.84
2023-03-17T15:03:18.975Z,16.75
2023-03-17T15:05:46.813Z,16.72
2023-03-17T15:08:34.536Z,16.69
2023-03-17T15:11:07.584Z,16.70
2023-03-17T15:13:38.092Z,16.64
2023-03-17T15:16:22.684Z,16.57
2023-03-17T15:18:57.627Z,16.53
2023-03-17T15:21:32.858Z,16.50
2023-03-17T15:24:28.924Z,16.45
2023-03-17T15:27:17.699Z,16.45
2023-03-17T15:29:45.775Z,16.37
2023-03-17T15:32:20.393Z,16.40
2023-03-17T15:34:48.637Z,16.37
2023-03-17T15:37:20.777Z,16.35
2023-03-17T15:39:49.063Z,16.30
2023-03-17T15:42:20.016Z,16.32
2023-03-17T15:44:47.306Z,16.34
2023-03-17T15:47:16.762Z,16.32
2023-03-17T15:49:48.717Z,16.25
2023-03-17T15:52:25.413Z,16.20
2023-03-17T15:54:58.303Z,16.13
2023-03-17T15:57:26.422Z,16.07
2023-03-17T15:59:53.712Z,16.03
2023-03-17T16:02:34.826Z,16.04
2023-03-17T16:05:15.619Z,15.98
2023-03-17T16:07:43.315Z,15.99
2023-03-17T16:10:19.372Z,15.97
2023-03-17T16:12:46.870Z,15.91
2023-03-17T16:15:23.108Z,15.88
2023-03-17T16:18:00.753Z,15.82
2023-03-17T16:20:34.329Z,15.77
2023-03-17T16:23:12.525Z,15.72
2023-03-17T16:25:40.063Z,15.68
2023-03-17T16:28:33.537Z,15.62
2023-03-17T16:31:02.428Z,15.57
2023-03-17T16:33:39.562Z,15.49
2023-03-17T16:36:06.864Z,15.42
2023-03-17T16:38:34.460Z,15.40
2023-03-17T16:41:07.804Z,15.32
2023-03-17T16:43:39.968Z,15.30
2023-03-17T16:46:07.532Z,15.24
2023-03-17T16:48:34.554Z,15.18
2023-03-17T16:51:02.291Z,15.13
2023-03-17T16:53:29.204Z,15.05
2023-03-17T16:55:56.866Z,14.98
2023-03-17T16:58:32.723Z,14.87
2023-03-17T17:01:02.850Z,14.73
2023-03-17T17:03:31.504Z,14.61
2023-03-17T17:06:00.172Z,14.51
2023-03-17T17:08:27.199Z,14.46
2023-03-17T17:10:54.040Z,14.38
2023-03-17T17:13:21.348Z,14.29
2023-03-17T17:15:48.734Z,14.21
2023-03-17T17:18:27.474Z,14.12
2023-03-17T17:20:59.123Z,14.02
2023-03-17T17:23:27.140Z,13.92
2023-03-17T17:25:54.626Z,13.82
2023-03-17T17:28:23.976Z,13.75
2023-03-17T17:30:52.270Z,13.67
2023-03-17T17:33:20.247Z,13.58
2023-03-17T17:35:48.881Z,13.49
2023-03-17T17:38:27.690Z,13.38
2023-03-17T17:40:56.985Z,13.29
2023-03-17T17:43:25.044Z,13.21
2023-03-17T17:45:52.751Z,13.15
2023-03-17T17:48:24.061Z,13.10
2023-03-17T17:50:52.601Z,13.03
2023-03-17T17:53:19.583Z,12.96
2023-03-17T17:55:48.151Z,12.89
2023-03-17T17:58:17.293Z,12.83
2023-03-17T18:00:44.349Z,12.79
2023-03-17T18:03:12.392Z,12.75
2023-03-17T18:05:40.052Z,12.72
2023-03-17T18:08:07.423Z,12.64
2023-03-17T18:10:35.089Z,12.62
2023-03-17T18:13:02.205Z,12.58
2023-03-17T18:15:29.685Z,12.58
2023-03-17T18:17:56.975Z,12.54
2023-03-17T18:20:26.218Z,12.51
2023-03-17T18:22:54.242Z,12.47
2023-03-17T18:25:21.758Z,12.42
2023-03-17T18:27:48.700Z,12.36
2023-03-17T18:30:23.480Z,12.32
2023-03-17T18:32:56.449Z,12.27
2023-03-17T18:35:27.473Z,12.17
2023-03-17T18:37:57.648Z,12.12
2023-03-17T18:40:25.828Z,12.09
2023-03-17T18:42:56.086Z,12.09
2023-03-17T18:45:24.198Z,12.08
2023-03-17T18:47:51.725Z,12.06
2023-03-17T18:50:22.105Z,12.01
2023-03-17T18:52:50.466Z,11.98
2023-03-17T18:55:17.806Z,11.95
2023-03-17T18:57:47.654Z,11.93
2023-03-17T19:00:17.898Z,11.93
2023-03-17T19:02:51.370Z,11.91
2023-03-17T19:05:19.816Z,11.83
2023-03-17T19:07:47.276Z,11.82
2023-03-17T19:10:15.967Z,11.80
2023-03-17T19:12:44.671Z,11.79
2023-03-17T19:15:13.722Z,11.75
2023-03-17T19:17:42.145Z,11.75
2023-03-17T19:20:10.232Z,11.71
2023-03-17T19:22:37.170Z,11.64
2023-03-17T19:25:05.456Z,11.61
2023-03-17T19:27:32.872Z,11.59
2023-03-17T19:29:59.793Z,11.57
2023-03-17T19:32:26.723Z,11.56
2023-03-17T19:34:53.728Z,11.52
2023-03-17T19:37:21.221Z,11.54
2023-03-17T19:39:48.521Z,11.52
2023-03-17T19:42:17.118Z,11.51
2023-03-17T19:44:46.489Z,11.46
2023-03-17T19:47:16.021Z,11.42
2023-03-17T19:49:42.890Z,11.32
2023-03-17T19:52:10.604Z,11.26
2023-03-17T19:54:45.226Z,11.22
2023-03-17T19:57:13.735Z,11.16
2023-03-17T19:59:41.059Z,11.10
2023-03-17T20:02:13.542Z,11.06
2023-03-17T20:04:43.939Z,11.04
2023-03-17T20:07:11.624Z,10.98
2023-03-17T20:09:39.436Z,10.92
2023-03-17T20:12:06.908Z,10.85
2023-03-17T20:14:34.660Z,10.77
2023-03-17T20:17:02.108Z,10.72
2023-03-17T20:19:30.004Z,10.66
2023-03-17T20:21:58.746Z,10.62
2023-03-17T20:24:27.411Z,10.57
2023-03-17T20:26:57.335Z,10.53
2023-03-17T20:29:26.111Z,10.52
2023-03-17T20:31:54.208Z,10.49
2023-03-17T20:34:22.178Z,10.40
2023-03-17T20:36:49.147Z,10.36
2023-03-17T20:39:20.031Z,10.33
2023-03-17T20:41:49.080Z,10.32
2023-03-17T20:44:16.836Z,10.32
2023-03-17T20:46:46.333Z,10.29
2023-03-17T20:49:16.240Z,10.24
2023-03-17T20:51:44.211Z,10.19
2023-03-17T20:54:12.843Z,10.15
2023-03-17T20:56:40.355Z,10.08
2023-03-17T20:59:09.651Z,10.03
2023-03-17T21:01:40.338Z,10.00
2023-03-17T21:04:09.495Z,9.99
2023-03-17T21:06:37.607Z,9.97
2023-03-17T21:09:06.666Z,9.94
2023-03-17T21:11:37.802Z,9.91
2023-03-17T21:14:08.149Z,9.77
2023-03-17T21:16:36.234Z,9.71
2023-03-17T21:19:07.966Z,9.67
2023-03-17T21:21:38.579Z,9.67
2023-03-17T21:24:09.580Z,9.67
2023-03-17T21:26:38.070Z,9.65
2023-03-17T21:29:04.893Z,9.63
2023-03-17T21:31:33.287Z,9.64
2023-03-17T21:34:02.325Z,9.63
2023-03-17T21:36:29.209Z,9.59
2023-03-17T21:38:56.312Z,9.55
2023-03-17T21:41:33.645Z,9.49
2023-03-17T21:44:01.697Z,9.41
2023-03-17T21:46:29.791Z,9.36
2023-03-17T21:48:58.579Z,9.27
2023-03-17T21:51:27.669Z,9.22
2023-03-17T21:53:54.735Z,9.16
2023-03-17T21:56:21.715Z,9.13
2023-03-17T21:58:49.915Z,9.12
2023-03-17T22:01:18.321Z,9.10
2023-03-17T22:03:45.268Z,9.02
2023-03-17T22:06:13.435Z,8.97
2023-03-17T22:08:40.676Z,8.90
2023-03-17T22:11:18.166Z,8.85
2023-03-17T22:13:45.929Z,8.84
2023-03-17T22:16:14.764Z,8.77
2023-03-17T22:18:42.178Z,8.69
2023-03-17T22:21:10.330Z,8.66
2023-03-17T22:23:42.463Z,8.63
2023-03-17T22:26:14.925Z,8.59
2023-03-17T22:28:43.146Z,8.56
2023-03-17T22:31:21.787Z,8.54
2023-03-17T22:33:50.458Z,8.48
2023-03-17T22:36:18.200Z,8.47
2023-03-17T22:38:46.284Z,8.45
2023-03-17T22:41:16.297Z,8.41
2023-03-17T22:43:43.684Z,8.43
2023-03-17T22:46:12.115Z,8.40
2023-03-17T22:48:40.434Z,8.35
2023-03-17T22:51:13.844Z,8.32
2023-03-17T22:53:41.027Z,8.30
2023-03-17T22:56:09.050Z,8.29
2023-03-17T22:58:36.036Z,8.27
2023-03-17T23:01:03.856Z,8.27
2023-03-17T23:03:30.811Z,8.25
2023-03-17T23:05:59.867Z,8.22
2023-03-17T23:08:29.451Z,8.21
2023-03-17T23:10:56.829Z,8.20
2023-03-17T23:13:24.310Z,8.16
2023-03-17T23:15:51.391Z,8.16
2023-03-17T23:18:18.186Z,8.12
2023-03-17T23:20:45.889Z,8.08
2023-03-17T23:23:13.158Z,8.07
2023-03-17T23:25:40.354Z,8.06
2023-03-17T23:28:07.790Z,8.05
2023-03-17T23:30:35.866Z,8.04
2023-03-17T23:33:04.997Z,7.99
2023-03-17T23:35:32.401Z,7.98
2023-03-17T23:38:00.374Z,7.98
2023-03-17T23:40:27.270Z,7.98
2023-03-17T23:42:55.222Z,7.97
2023-03-17T23:45:23.320Z,7.94
2023-03-17T23:47:51.680Z,7.91
2023-03-17T23:50:19.526Z,7.91
2023-03-17T23:52:47.286Z,7.89
2023-03-17T23:55:16.134Z,7.89
2023-03-17T23:57:44.248Z,7.86
